createdAt,value
2023-03-31T00:01:35.504Z,1.70
2023-03-31T00:04:05.647Z,1.73
2023-03-31T00:06:38.220Z,2.08
2023-03-31T00:09:10.934Z,1.40
2023-03-31T00:11:41.905Z,1.30
2023-03-31T00:14:11.050Z,1.17
2023-03-31T00:16:40.616Z,1.50
2023-03-31T00:19:18.339Z,1.20
2023-03-31T00:21:48.778Z,1.88
2023-03-31T00:24:17.584Z,1.20
2023-03-31T00:26:47.376Z,1.52
2023-03-31T00:29:16.223Z,1.38
2023-03-31T00:31:44.731Z,1.00
2023-03-31T00:34:13.187Z,1.30
2023-03-31T00:36:45.943Z,1.10
2023-03-31T00:39:15.716Z,1.23
2023-03-31T00:41:44.153Z,1.00
2023-03-31T00:44:23.049Z,1.38
2023-03-31T00:46:56.370Z,1.40
2023-03-31T00:49:31.296Z,1.33
2023-03-31T00:52:06.355Z,1.13
2023-03-31T00:54:37.736Z,1.20
2023-03-31T00:57:08.751Z,1.13
2023-03-31T00:59:42.791Z,1.60
2023-03-31T01:02:13.564Z,1.10
2023-03-31T01:04:50.300Z,1.27
2023-03-31T01:07:25.755Z,1.70
2023-03-31T01:09:59.214Z,1.85
2023-03-31T01:12:29.325Z,1.52
2023-03-31T01:14:59.975Z,2.28
2023-03-31T01:17:30.035Z,2.00
2023-03-31T01:20:14.956Z,1.50
2023-03-31T01:23:32.838Z,1.48
2023-03-31T01:26:57.597Z,1.70
2023-03-31T01:30:08.250Z,1.70
2023-03-31T01:33:17.430Z,1.30
2023-03-31T01:36:46.699Z,2.10
2023-03-31T01:40:22.421Z,2.28
2023-03-31T01:42:58.755Z,1.52
2023-03-31T01:45:39.011Z,2.10
2023-03-31T01:48:14.511Z,2.58
2023-03-31T01:50:49.476Z,2.40
2023-03-31T01:53:28.425Z,1.83
2023-03-31T01:56:07.041Z,2.03
2023-03-31T01:58:40.044Z,7.70
2023-03-31T02:01:16.570Z,2.72
2023-03-31T02:03:51.653Z,2.50
2023-03-31T02:06:25.612Z,2.55
2023-03-31T02:09:01.324Z,2.28
2023-03-31T02:11:34.589Z,2.83
2023-03-31T02:14:06.065Z,2.22
2023-03-31T02:16:42.047Z,3.03
2023-03-31T02:19:14.107Z,2.05
2023-03-31T02:21:42.880Z,2.70
2023-03-31T02:24:14.306Z,2.20
2023-03-31T02:26:51.179Z,2.20
2023-03-31T02:29:19.691Z,3.00
2023-03-31T02:31:54.035Z,2.28
2023-03-31T02:34:22.739Z,2.50
2023-03-31T02:36:52.312Z,2.80
2023-03-31T02:39:27.078Z,2.40
2023-03-31T02:41:58.525Z,2.92
2023-03-31T02:44:27.922Z,2.90
2023-03-31T02:46:56.455Z,3.17
2023-03-31T02:49:24.920Z,2.85
2023-03-31T02:52:13.413Z,2.28
2023-03-31T02:55:37.669Z,2.28
2023-03-31T02:58:29.196Z,2.58
2023-03-31T03:01:25.159Z,2.53
2023-03-31T03:04:10.609Z,2.50
2023-03-31T03:06:53.989Z,2.95
2023-03-31T03:09:40.339Z,2.85
2023-03-31T03:12:17.557Z,2.95
2023-03-31T03:14:55.281Z,3.03
2023-03-31T03:17:30.135Z,2.67
2023-03-31T03:20:08.069Z,3.33
2023-03-31T03:22:37.311Z,2.97
2023-03-31T03:25:07.199Z,2.78
2023-03-31T03:27:36.038Z,3.00
2023-03-31T03:30:08.862Z,2.08
2023-03-31T03:32:37.410Z,2.35
2023-03-31T03:35:07.751Z,2.80
2023-03-31T03:37:36.273Z,3.42
2023-03-31T03:40:06.906Z,2.95
2023-03-31T03:42:36.320Z,2.90
2023-03-31T03:45:07.747Z,2.17
2023-03-31T03:47:37.054Z,3.05
2023-03-31T03:50:06.471Z,2.85
2023-03-31T03:52:34.976Z,3.38
2023-03-31T03:55:03.625Z,2.67
2023-03-31T03:57:32.141Z,3.10
2023-03-31T04:00:00.739Z,3.90
2023-03-31T04:02:30.655Z,2.53
2023-03-31T04:04:59.191Z,3.35
2023-03-31T04:07:27.637Z,3.05
2023-03-31T04:09:56.085Z,4.30
2023-03-31T04:12:24.539Z,2.80
2023-03-31T04:14:53.030Z,2.72
2023-03-31T04:17:32.579Z,3.78
2023-03-31T04:20:05.770Z,3.03
2023-03-31T04:22:35.391Z,2.28
2023-03-31T04:25:14.901Z,3.30
2023-03-31T04:27:46.871Z,2.88
2023-03-31T04:30:22.837Z,2.55
2023-03-31T04:32:53.596Z,3.80
2023-03-31T04:35:24.795Z,3.70
2023-03-31T04:37:59.038Z,2.67
2023-03-31T04:40:28.119Z,3.00
2023-03-31T04:42:56.605Z,2.88
2023-03-31T04:45:25.066Z,2.80
2023-03-31T04:47:53.583Z,2.42
2023-03-31T04:50:23.519Z,4.45
2023-03-31T04:52:51.991Z,3.58
2023-03-31T04:55:20.592Z,4.57
2023-03-31T04:57:49.300Z,3.38
2023-03-31T05:00:19.334Z,4.78
2023-03-31T05:02:48.107Z,4.82
2023-03-31T05:05:16.858Z,3.55
2023-03-31T05:07:46.687Z,4.43
2023-03-31T05:10:15.482Z,4.88
2023-03-31T05:12:43.931Z,4.03
2023-03-31T05:15:13.243Z,5.03
2023-03-31T05:17:41.803Z,4.35
2023-03-31T05:20:13.504Z,4.60
2023-03-31T05:22:44.153Z,4.43
2023-03-31T05:25:18.815Z,4.13
2023-03-31T05:27:48.375Z,7.63
2023-03-31T05:30:18.666Z,4.65
2023-03-31T05:32:47.373Z,3.42
2023-03-31T05:35:15.977Z,3.63
2023-03-31T05:37:44.511Z,3.15
2023-03-31T05:40:14.682Z,3.88
2023-03-31T05:42:43.235Z,5.05
2023-03-31T05:45:12.522Z,3.70
2023-03-31T05:47:41.165Z,3.80
2023-03-31T05:50:13.234Z,3.80
2023-03-31T05:52:43.091Z,3.42
2023-03-31T05:55:13.492Z,4.18
2023-03-31T05:57:41.933Z,4.35
2023-03-31T06:00:12.462Z,4.43
2023-03-31T06:02:41.188Z,3.97
2023-03-31T06:05:10.566Z,3.35
2023-03-31T06:07:39.080Z,3.28
2023-03-31T06:10:10.858Z,2.40
2023-03-31T06:12:40.869Z,3.25
2023-03-31T06:15:10.611Z,3.00
2023-03-31T06:17:39.194Z,3.20
2023-03-31T06:20:23.895Z,2.67
2023-03-31T06:22:55.341Z,3.20
2023-03-31T06:25:23.830Z,2.88
2023-03-31T06:27:53.807Z,2.10
2023-03-31T06:30:22.233Z,2.95
2023-03-31T06:32:50.791Z,2.95
2023-03-31T06:35:19.324Z,3.15
2023-03-31T06:37:47.850Z,2.80
2023-03-31T06:40:16.638Z,2.35
2023-03-31T06:42:45.154Z,3.10
2023-03-31T06:45:15.052Z,3.40
2023-03-31T06:47:43.569Z,3.22
2023-03-31T06:50:12.666Z,2.63
2023-03-31T06:52:41.989Z,3.65
2023-03-31T06:55:13.458Z,3.53
2023-03-31T06:57:42.459Z,3.47
2023-03-31T07:00:12.903Z,3.63
2023-03-31T07:02:43.435Z,4.78
2023-03-31T07:05:12.052Z,3.45
2023-03-31T07:07:40.470Z,3.30
2023-03-31T07:10:09.993Z,3.70
2023-03-31T07:12:38.511Z,3.55
2023-03-31T07:15:09.100Z,3.75
2023-03-31T07:17:43.131Z,4.47
2023-03-31T07:20:16.285Z,3.75
2023-03-31T07:22:44.880Z,4.60
2023-03-31T07:25:19.336Z,2.58
2023-03-31T07:27:47.815Z,2.88
2023-03-31T07:30:19.027Z,3.53
2023-03-31T07:32:49.047Z,4.90
2023-03-31T07:35:20.599Z,5.18
2023-03-31T07:37:51.084Z,4.95
2023-03-31T07:40:22.454Z,7.10
2023-03-31T07:42:52.321Z,4.72
2023-03-31T07:45:22.929Z,5.32
2023-03-31T07:47:52.138Z,4.22
2023-03-31T07:50:23.905Z,4.43
2023-03-31T07:52:53.246Z,5.57
2023-03-31T07:55:23.736Z,4.38
2023-03-31T07:57:52.379Z,4.07
2023-03-31T08:00:22.966Z,5.05
2023-03-31T08:02:51.773Z,4.40
2023-03-31T08:05:22.444Z,3.30
2023-03-31T08:07:52.126Z,3.58
2023-03-31T08:10:24.428Z,3.13
2023-03-31T08:12:53.329Z,2.72
2023-03-31T08:15:21.867Z,3.05
2023-03-31T08:17:50.699Z,2.53
2023-03-31T08:20:19.560Z,4.03
2023-03-31T08:22:49.478Z,3.05
2023-03-31T08:25:18.553Z,2.70
2023-03-31T08:27:49.050Z,2.80
2023-03-31T08:30:18.922Z,2.58
2023-03-31T08:32:47.897Z,2.78
2023-03-31T08:35:16.713Z,2.88
2023-03-31T08:37:45.403Z,3.88
2023-03-31T08:40:22.380Z,3.57
2023-03-31T08:42:54.831Z,2.70
2023-03-31T08:45:28.856Z,2.90
2023-03-31T08:48:06.628Z,3.15
2023-03-31T08:50:40.728Z,2.90
2023-03-31T08:53:19.732Z,3.95
2023-03-31T08:55:53.699Z,3.13
2023-03-31T08:58:37.171Z,3.55
2023-03-31T09:01:18.299Z,3.85
2023-03-31T09:04:10.913Z,3.63
2023-03-31T09:06:49.487Z,2.65
2023-03-31T09:09:31.220Z,3.78
2023-03-31T09:12:08.008Z,2.90
2023-03-31T09:14:42.450Z,3.88
2023-03-31T09:17:22.253Z,3.00
2023-03-31T09:19:57.330Z,3.00
2023-03-31T09:22:31.334Z,4.07
2023-03-31T09:25:04.776Z,4.28
2023-03-31T09:27:37.532Z,2.83
2023-03-31T09:30:15.985Z,3.47
2023-03-31T09:32:45.012Z,3.83
2023-03-31T09:35:21.761Z,4.53
2023-03-31T09:37:50.998Z,3.20
2023-03-31T09:40:22.142Z,4.43
2023-03-31T09:42:59.202Z,3.53
2023-03-31T09:45:28.151Z,4.18
2023-03-31T09:48:00.309Z,3.80
2023-03-31T09:50:30.899Z,5.35
2023-03-31T09:53:01.972Z,3.38
2023-03-31T09:55:43.070Z,3.33
2023-03-31T09:58:17.223Z,3.00
2023-03-31T10:01:00.734Z,3.88
2023-03-31T10:03:36.788Z,4.00
2023-03-31T10:06:11.864Z,6.38
2023-03-31T10:08:43.528Z,4.75
2023-03-31T10:11:13.778Z,6.13
2023-03-31T10:13:48.756Z,3.58
2023-03-31T10:16:25.246Z,4.10
2023-03-31T10:18:53.935Z,4.40
2023-03-31T10:21:25.929Z,4.53
2023-03-31T10:23:56.305Z,3.20
2023-03-31T10:26:29.454Z,4.40
2023-03-31T10:28:59.378Z,3.28
2023-03-31T10:31:36.682Z,4.45
2023-03-31T10:34:08.561Z,3.50
2023-03-31T10:36:37.649Z,3.58
2023-03-31T10:39:08.694Z,3.50
2023-03-31T10:41:37.369Z,3.67
2023-03-31T10:44:07.297Z,3.35
2023-03-31T10:46:47.500Z,3.15
2023-03-31T10:49:25.267Z,3.83
2023-03-31T10:51:56.235Z,4.40
2023-03-31T10:54:25.245Z,3.90
2023-03-31T10:56:56.586Z,3.40
2023-03-31T10:59:42.472Z,4.17
2023-03-31T11:02:50.222Z,4.50
2023-03-31T11:05:26.101Z,3.97
2023-03-31T11:08:14.414Z,4.18
2023-03-31T11:11:04.314Z,4.55
2023-03-31T11:13:40.926Z,4.03
2023-03-31T11:16:21.174Z,3.13
2023-03-31T11:19:18.079Z,4.03
2023-03-31T11:22:00.521Z,3.80
2023-03-31T11:24:48.068Z,3.88
2023-03-31T11:27:38.300Z,4.45
2023-03-31T11:30:15.486Z,4.20
2023-03-31T11:32:59.182Z,3.55
2023-03-31T11:35:51.030Z,3.55
2023-03-31T11:38:55.200Z,4.75
2023-03-31T11:41:31.747Z,4.45
2023-03-31T11:44:04.623Z,4.18
2023-03-31T11:46:42.805Z,4.88
2023-03-31T11:49:21.411Z,3.30
2023-03-31T11:51:55.843Z,2.80
2023-03-31T11:54:32.895Z,5.35
2023-03-31T11:57:11.167Z,3.65
2023-03-31T11:59:41.791Z,4.32
2023-03-31T12:02:18.697Z,3.88
2023-03-31T12:04:53.177Z,4.28
2023-03-31T12:07:30.602Z,3.30
2023-03-31T12:10:13.798Z,3.78
2023-03-31T12:12:48.563Z,4.13
2023-03-31T12:15:24.798Z,3.08
2023-03-31T12:18:01.883Z,3.75
2023-03-31T12:20:41.863Z,3.10
2023-03-31T12:23:18.524Z,2.80
2023-03-31T12:25:53.516Z,4.68
2023-03-31T12:28:22.914Z,3.50
2023-03-31T12:30:53.813Z,3.72
2023-03-31T12:33:28.474Z,2.97
2023-03-31T12:36:15.832Z,3.55
2023-03-31T12:39:02.779Z,3.30
2023-03-31T12:41:41.082Z,3.85
2023-03-31T12:44:35.505Z,3.20
2023-03-31T12:47:47.430Z,3.58
2023-03-31T12:50:44.117Z,2.67
2023-03-31T12:53:24.613Z,3.05
2023-03-31T12:55:58.837Z,3.28
2023-03-31T12:58:47.701Z,2.92
2023-03-31T13:01:21.515Z,3.90
2023-03-31T13:03:54.476Z,4.03
2023-03-31T13:07:01.246Z,2.83
2023-03-31T13:09:52.258Z,3.40
2023-03-31T13:12:25.617Z,2.90
2023-03-31T13:14:59.171Z,6.15
2023-03-31T13:17:31.914Z,3.50
2023-03-31T13:20:31.630Z,4.47
2023-03-31T13:23:07.311Z,4.63
2023-03-31T13:25:52.920Z,3.90
2023-03-31T13:28:42.432Z,4.40
2023-03-31T13:31:13.378Z,3.25
2023-03-31T13:33:57.225Z,3.30
2023-03-31T13:37:11.422Z,3.15
2023-03-31T13:40:32.700Z,4.07
2023-03-31T13:43:53.214Z,3.63
2023-03-31T13:47:34.323Z,2.28
2023-03-31T13:50:34.109Z,2.90
2023-03-31T13:53:17.795Z,2.38
2023-03-31T13:56:16.001Z,2.83
2023-03-31T13:59:28.852Z,2.53
2023-03-31T14:02:28.594Z,3.50
2023-03-31T14:05:35.050Z,2.55
2023-03-31T14:08:12.112Z,2.85
2023-03-31T14:10:43.290Z,2.47
2023-03-31T14:13:15.768Z,2.95
2023-03-31T14:15:51.601Z,2.40
2023-03-31T14:18:26.801Z,2.95
2023-03-31T14:21:13.954Z,2.35
2023-03-31T14:24:00.687Z,3.10
2023-03-31T14:26:48.614Z,2.67
2023-03-31T14:29:25.901Z,2.85
2023-03-31T14:32:05.862Z,2.25
2023-03-31T14:35:05.409Z,3.22
2023-03-31T14:37:35.295Z,2.17
2023-03-31T14:40:05.171Z,3.15
2023-03-31T14:42:39.995Z,2.20
2023-03-31T14:45:18.790Z,2.83
2023-03-31T14:47:58.645Z,2.60
2023-03-31T14:50:34.994Z,2.75
2023-03-31T14:53:04.831Z,3.60
2023-03-31T14:58:07.971Z,2.40
2023-03-31T15:00:40.068Z,2.22
2023-03-31T15:03:15.891Z,2.28
2023-03-31T15:05:48.240Z,2.65
2023-03-31T15:08:22.856Z,2.97
2023-03-31T15:11:02.067Z,2.65
2023-03-31T15:13:56.580Z,2.00
2023-03-31T15:16:38.979Z,2.97
2023-03-31T15:19:16.331Z,2.25
2023-03-31T15:21:46.089Z,1.80
2023-03-31T15:24:15.879Z,2.40
2023-03-31T15:26:52.642Z,2.08
2023-03-31T15:29:24.621Z,1.90
2023-03-31T15:31:53.282Z,1.20
2023-03-31T15:34:28.305Z,1.30
2023-03-31T15:36:58.770Z,1.15
2023-03-31T15:39:31.476Z,2.03
2023-03-31T15:42:02.451Z,1.20
2023-03-31T15:44:39.523Z,1.50
2023-03-31T15:47:16.893Z,1.30
2023-03-31T15:49:59.453Z,1.63
2023-03-31T15:52:35.505Z,1.27
2023-03-31T15:55:26.617Z,1.23
2023-03-31T15:57:56.282Z,2.55
2023-03-31T16:00:46.673Z,2.28
2023-03-31T16:03:21.059Z,2.30
2023-03-31T16:05:56.914Z,1.77
2023-03-31T16:08:33.097Z,1.92
2023-03-31T16:11:06.513Z,14.43
2023-03-31T16:13:39.010Z,2.97
2023-03-31T16:16:10.078Z,2.55
2023-03-31T16:18:43.052Z,2.38
2023-03-31T16:21:16.189Z,2.25
2023-03-31T16:23:45.652Z,1.65
2023-03-31T16:26:21.220Z,2.25
2023-03-31T16:28:52.944Z,1.98
2023-03-31T16:31:35.561Z,1.52
2023-03-31T16:34:07.345Z,1.80
2023-03-31T16:36:37.355Z,1.45
2023-03-31T16:39:08.339Z,1.38
2023-03-31T16:41:38.749Z,1.65
2023-03-31T16:44:07.828Z,1.45
2023-03-31T16:46:36.426Z,1.45
2023-03-31T16:49:06.102Z,1.60
2023-03-31T16:51:36.547Z,1.50
2023-03-31T16:54:05.446Z,2.10
2023-03-31T16:56:34.418Z,2.00
2023-03-31T16:59:03.847Z,2.20
2023-03-31T17:01:33.749Z,1.35
2023-03-31T17:04:03.381Z,1.65
2023-03-31T17:06:32.304Z,1.88
2023-03-31T17:09:03.129Z,2.60
2023-03-31T17:11:34.125Z,2.55
2023-03-31T17:14:05.315Z,2.00
2023-03-31T17:16:45.078Z,2.50
2023-03-31T17:19:18.749Z,2.08
2023-03-31T17:21:48.106Z,2.40
2023-03-31T17:24:18.919Z,2.35
2023-03-31T17:26:48.089Z,3.13
2023-03-31T17:29:17.241Z,5.22
2023-03-31T17:31:46.916Z,5.03
2023-03-31T17:34:17.135Z,3.80
2023-03-31T17:36:46.820Z,4.38
2023-03-31T17:39:16.036Z,3.20
2023-03-31T17:41:47.340Z,3.80
2023-03-31T17:44:18.297Z,3.85
2023-03-31T17:46:48.957Z,3.50
2023-03-31T17:49:19.599Z,3.20
2023-03-31T17:51:48.885Z,3.65
2023-03-31T17:54:18.315Z,2.13
2023-03-31T17:56:50.749Z,2.95
2023-03-31T17:59:22.261Z,2.65
2023-03-31T18:01:51.339Z,2.33
2023-03-31T18:04:21.828Z,2.13
2023-03-31T18:06:51.321Z,2.38
2023-03-31T18:09:21.245Z,1.75
2023-03-31T18:11:51.771Z,2.92
2023-03-31T18:14:21.400Z,2.13
2023-03-31T18:16:51.586Z,2.47
2023-03-31T18:19:22.549Z,2.13
2023-03-31T18:21:53.593Z,3.47
2023-03-31T18:24:24.922Z,2.28
2023-03-31T18:26:57.089Z,2.28
2023-03-31T18:29:27.554Z,2.55
2023-03-31T18:31:59.228Z,1.92
2023-03-31T18:34:29.561Z,1.90
2023-03-31T18:37:00.585Z,2.70
2023-03-31T18:39:30.337Z,2.85
2023-03-31T18:42:04.198Z,2.50
2023-03-31T18:44:36.271Z,2.58
2023-03-31T18:47:07.394Z,1.85
2023-03-31T18:49:39.057Z,2.53
2023-03-31T18:52:10.291Z,1.90
2023-03-31T18:54:40.651Z,2.33
2023-03-31T18:57:13.378Z,1.85
2023-03-31T18:59:46.828Z,2.25
2023-03-31T19:02:19.113Z,2.28
2023-03-31T19:04:50.300Z,1.85
2023-03-31T19:07:21.273Z,1.60
2023-03-31T19:09:51.816Z,1.98
2023-03-31T19:12:25.765Z,1.77
2023-03-31T19:14:55.687Z,2.17
2023-03-31T19:17:25.468Z,2.05
2023-03-31T19:19:58.948Z,1.92
2023-03-31T19:22:30.500Z,1.75
2023-03-31T19:25:00.469Z,1.95
2023-03-31T19:27:32.308Z,2.70
2023-03-31T19:30:02.295Z,1.85
2023-03-31T19:32:32.149Z,2.22
2023-03-31T19:35:02.110Z,2.00
2023-03-31T19:37:32.767Z,1.92
2023-03-31T19:40:03.411Z,1.80
2023-03-31T19:42:37.831Z,2.13
2023-03-31T19:45:10.443Z,2.38
2023-03-31T19:47:40.337Z,2.28
2023-03-31T19:50:13.568Z,2.00
2023-03-31T19:52:44.364Z,2.95
2023-03-31T19:55:14.509Z,1.88
2023-03-31T19:57:46.409Z,2.53
2023-03-31T20:00:18.860Z,2.42
2023-03-31T20:02:48.610Z,3.08
2023-03-31T20:05:19.872Z,2.45
2023-03-31T20:07:49.942Z,2.38
2023-03-31T20:10:20.606Z,2.33
2023-03-31T20:12:52.356Z,2.75
2023-03-31T20:15:22.221Z,2.15
2023-03-31T20:17:52.910Z,2.63
2023-03-31T20:20:22.704Z,2.40
2023-03-31T20:22:53.788Z,2.00
2023-03-31T20:25:25.180Z,2.15
2023-03-31T20:27:56.790Z,2.67
2023-03-31T20:30:26.562Z,1.50
2023-03-31T20:32:56.574Z,1.80
2023-03-31T20:35:25.922Z,1.95
2023-03-31T20:37:55.589Z,4.90
2023-03-31T20:40:26.522Z,1.92
2023-03-31T20:42:57.378Z,1.60
2023-03-31T20:45:26.258Z,2.17
2023-03-31T20:47:55.650Z,1.92
2023-03-31T20:50:24.951Z,2.55
2023-03-31T20:52:54.040Z,2.70
2023-03-31T20:55:23.772Z,1.55
2023-03-31T20:57:52.746Z,1.80
2023-03-31T21:00:23.147Z,2.65
2023-03-31T21:02:51.947Z,2.30
2023-03-31T21:05:20.652Z,1.95
2023-03-31T21:07:49.250Z,2.38
2023-03-31T21:10:17.950Z,2.05
2023-03-31T21:12:46.509Z,2.90
2023-03-31T21:15:15.190Z,2.78
2023-03-31T21:17:45.655Z,2.83
2023-03-31T21:20:14.248Z,2.10
2023-03-31T21:22:45.338Z,1.80
2023-03-31T21:25:13.888Z,2.80
2023-03-31T21:27:42.339Z,1.58
2023-03-31T21:30:12.612Z,2.20
2023-03-31T21:32:41.120Z,1.50
2023-03-31T21:35:11.583Z,2.13
2023-03-31T21:37:40.061Z,1.58
2023-03-31T21:40:10.871Z,2.00
2023-03-31T21:42:39.327Z,1.25
2023-03-31T21:45:09.636Z,1.33
2023-03-31T21:47:38.548Z,1.42
2023-03-31T21:50:08.682Z,1.30
2023-03-31T21:52:38.599Z,1.10
2023-03-31T21:55:08.021Z,1.10
2023-03-31T21:57:36.452Z,1.70
2023-03-31T22:00:12.201Z,1.10
2023-03-31T22:02:40.686Z,1.30
2023-03-31T22:05:10.982Z,1.60
2023-03-31T22:07:41.300Z,0.90
2023-03-31T22:10:11.246Z,1.75
2023-03-31T22:12:40.421Z,1.80
2023-03-31T22:15:10.845Z,1.70
2023-03-31T22:17:39.425Z,1.48
2023-03-31T22:20:09.860Z,2.17
2023-03-31T22:22:41.752Z,1.90
2023-03-31T22:25:11.257Z,0.88
2023-03-31T22:27:39.851Z,0.70
2023-03-31T22:30:10.997Z,0.70
2023-03-31T22:32:39.487Z,1.27
2023-03-31T22:35:09.334Z,0.70
2023-03-31T22:37:37.777Z,0.95
2023-03-31T22:40:10.104Z,0.80
2023-03-31T22:42:38.679Z,0.68
2023-03-31T22:45:08.648Z,1.00
2023-03-31T22:47:37.159Z,0.88
2023-03-31T22:50:06.392Z,1.00
2023-03-31T22:52:34.893Z,0.95
2023-03-31T22:55:03.359Z,0.73
2023-03-31T22:57:33.517Z,0.93
2023-03-31T23:00:02.064Z,0.70
2023-03-31T23:02:30.650Z,0.80
2023-03-31T23:04:59.205Z,1.00
2023-03-31T23:07:28.140Z,0.57
2023-03-31T23:09:56.770Z,0.90
2023-03-31T23:12:26.972Z,0.93
2023-03-31T23:14:56.936Z,0.60
2023-03-31T23:17:25.444Z,1.77
2023-03-31T23:19:53.947Z,0.70
2023-03-31T23:22:22.705Z,0.90
2023-03-31T23:24:51.722Z,1.23
2023-03-31T23:27:20.618Z,0.90
2023-03-31T23:29:49.143Z,0.82
2023-03-31T23:32:19.137Z,0.73
2023-03-31T23:34:47.773Z,0.82
2023-03-31T23:37:16.564Z,0.82
2023-03-31T23:39:44.956Z,0.90
2023-03-31T23:42:16.164Z,1.00
2023-03-31T23:44:44.617Z,0.85
2023-03-31T23:47:13.100Z,1.02
2023-03-31T23:49:42.892Z,0.73
2023-03-31T23:52:11.559Z,0.75
2023-03-31T23:54:39.952Z,1.40
2023-03-31T23:57:08.480Z,0.85
2023-03-31T23:59:37.195Z,1.10
